Time;durP1;ratioP1;P1;durP2;ratioP2;P2;SDS_P1;SDS_P2;PMS_P1;PMS_P2;Temp;Humidity;BMP_temperature;BMP_pressure;BME280_temperature;BME280_humidity;BME280_pressure;Samples;Min_cycle;Max_cycle;Signal;HPM_P1;HPM_P2
2022/08/28 00:02:02;;;;;;;0.40;0.40;;;21.30;78.00;;;21.66;63.54;94699.03;5013485;28;20238;-80
2022/08/28 00:04:29;;;;;;;0.40;0.40;;;21.30;78.00;;;21.66;63.33;94693.69;5015351;28;20286;-81
2022/08/28 00:06:57;;;;;;;0.30;0.30;;;21.30;78.00;;;21.66;63.85;94688.34;4998401;28;20600;-80
2022/08/28 00:09:24;;;;;;;0.40;0.40;;;21.30;78.10;;;21.64;63.82;94679.81;4994186;28;20199;-80
2022/08/28 00:11:52;;;;;;;0.40;0.40;;;21.30;78.10;;;21.61;63.98;94680.34;5016025;28;20216;-80
2022/08/28 00:14:21;;;;;;;0.40;0.40;;;21.30;78.10;;;21.56;64.34;94692.63;5030600;28;20219;-80
2022/08/28 00:16:50;;;;;;;0.60;0.60;;;21.30;78.20;;;21.52;64.56;94693.38;5014678;28;20318;-79
2022/08/28 00:19:19;;;;;;;0.40;0.40;;;21.30;78.20;;;21.46;64.95;94699.78;5017386;28;20207;-80
2022/08/28 00:21:46;;;;;;;0.40;0.40;;;21.30;78.40;;;21.40;65.16;94691.78;5014575;28;20254;-80
2022/08/28 00:24:14;;;;;;;0.40;0.40;;;21.30;78.40;;;21.29;65.29;94684.84;5014548;28;20668;-80
2022/08/28 00:29:29;;;;;;;0.40;0.40;;;21.20;78.70;;;21.15;66.61;94702.41;5026524;28;20208;-80
2022/08/28 00:31:56;;;;;;;0.40;0.40;;;21.20;79.10;;;21.08;66.99;94697.31;5024456;28;20220;-80
2022/08/28 00:34:23;;;;;;;0.45;0.45;;;21.10;79.30;;;21.00;66.59;94695.97;5032423;28;20259;-79
2022/08/28 00:36:59;;;;;;;0.40;0.40;;;21.00;79.20;;;20.99;66.80;94701.56;5019132;28;20228;-80
2022/08/28 00:39:26;;;;;;;0.40;0.40;;;21.00;79.20;;;20.96;66.49;94705.56;4997581;28;20214;-79
2022/08/28 00:41:54;;;;;;;0.40;0.40;;;20.90;79.30;;;20.94;67.34;94713.03;4998330;28;20241;-79
2022/08/28 00:44:27;;;;;;;0.40;0.40;;;20.90;79.70;;;20.91;67.47;94711.69;5034040;28;20660;-80
2022/08/28 00:46:58;;;;;;;0.43;0.43;;;20.90;80.60;;;20.90;67.21;94698.63;5032984;28;20223;-79
2022/08/28 00:49:30;;;;;;;0.40;0.40;;;20.90;80.00;;;20.86;67.13;94703.69;5014286;28;20227;-78
2022/08/28 00:52:10;;;;;;;0.50;0.50;;;20.90;80.00;;;20.87;67.32;94701.78;4997286;28;20285;-80
2022/08/28 00:54:59;;;;;;;0.40;0.40;;;20.80;80.20;;;20.85;67.76;94706.59;4983037;28;20196;-80
2022/08/28 00:57:43;;;;;;;0.40;0.40;;;20.80;80.60;;;20.82;67.88;94696.47;4997857;28;20226;-80
2022/08/28 01:00:23;;;;;;;0.40;0.40;;;20.80;80.60;;;20.83;68.38;94700.72;5010646;28;20212;-80
2022/08/28 01:02:51;;;;;;;0.50;0.50;;;20.80;80.80;;;20.77;68.59;94691.91;4997440;28;20259;-79
2022/08/28 01:05:20;;;;;;;0.50;0.50;;;20.80;80.80;;;20.83;67.86;94706.84;5013617;28;20304;-79
2022/08/28 01:07:49;;;;;;;0.40;0.40;;;20.80;80.70;;;20.82;68.64;94707.13;5013745;28;20218;-79
2022/08/28 01:10:21;;;;;;;0.55;0.55;;;20.80;81.00;;;20.80;68.78;94704.72;5021815;28;20687;-79
2022/08/28 01:12:49;;;;;;;0.45;0.45;;;20.80;81.20;;;20.77;68.53;94698.03;5009853;28;20228;-80
2022/08/28 01:15:23;;;;;;;0.40;0.40;;;20.70;81.10;;;20.79;68.70;94700.44;4997409;28;20200;-80
2022/08/28 01:17:56;;;;;;;0.50;0.50;;;20.70;81.40;;;20.77;68.85;94707.91;4998062;28;20233;-79
2022/08/28 01:20:31;;;;;;;0.57;0.57;;;20.70;81.50;;;20.77;68.52;94700.69;5009479;28;20222;-80
2022/08/28 01:23:52;;;;;;;0.40;0.40;;;20.80;81.60;;;20.76;68.88;94700.97;5003400;28;20227;-80
2022/08/28 01:26:20;;;;;;;0.60;0.60;;;20.70;81.40;;;20.75;68.75;94702.84;5013204;28;20228;-80
2022/08/28 01:28:47;;;;;;;0.50;0.50;;;20.80;81.60;;;20.79;68.37;94708.44;4980172;28;20223;-79
2022/08/28 01:31:17;;;;;;;0.50;0.50;;;20.70;81.50;;;20.81;68.33;94700.19;5013258;28;20219;-79
2022/08/28 01:33:46;;;;;;;0.40;0.40;;;20.70;81.40;;;20.86;68.23;94700.19;4996944;28;20198;-80
2022/08/28 01:36:16;;;;;;;0.47;0.47;;;20.70;81.40;;;20.88;67.71;94706.06;5011262;28;20229;-80
2022/08/28 01:38:49;;;;;;;0.40;0.40;;;20.70;81.40;;;20.90;67.80;94702.06;5013275;28;20206;-80
2022/08/28 01:41:16;;;;;;;0.43;0.43;;;20.70;81.60;;;20.89;68.22;94695.13;5008235;28;20228;-79
2022/08/28 01:43:44;;;;;;;0.40;0.40;;;20.70;81.50;;;20.90;67.67;94699.41;5021147;28;20723;-80
2022/08/28 01:46:11;;;;;;;0.50;0.50;;;20.70;81.40;;;20.91;67.24;94695.69;5012978;28;20212;-80
2022/08/28 01:48:43;;;;;;;0.40;0.40;;;20.70;81.30;;;20.91;68.08;94695.69;5001698;28;20222;-80
2022/08/28 01:51:13;;;;;;;0.40;0.40;;;20.70;81.40;;;20.93;67.51;94698.09;5004230;28;20708;-80
2022/08/28 01:53:41;;;;;;;0.40;0.40;;;20.70;81.30;;;20.95;67.54;94701.28;5013205;28;20198;-80
2022/08/28 01:56:16;;;;;;;0.38;0.38;;;20.70;81.20;;;20.98;67.02;94705.31;5028286;28;20222;-78
2022/08/28 01:58:46;;;;;;;0.50;0.50;;;20.70;81.20;;;21.01;67.16;94704.78;5024464;28;20675;-80
2022/08/28 02:01:19;;;;;;;0.40;0.40;;;20.70;81.20;;;21.04;67.04;94702.38;5021709;28;20631;-80
2022/08/28 02:03:47;;;;;;;0.40;0.40;;;20.80;81.40;;;21.07;66.51;94698.41;5032789;28;20226;-80
2022/08/28 02:06:16;;;;;;;0.40;0.40;;;20.80;81.20;;;21.06;66.85;94697.59;5017276;28;20278;-80
2022/08/28 02:08:45;;;;;;;0.47;0.47;;;20.80;81.10;;;21.11;66.81;94699.47;5028249;28;20198;-80
2022/08/28 02:11:12;;;;;;;0.52;0.52;;;20.80;81.10;;;21.15;66.52;94700.53;5006810;28;20257;-78
2022/08/28 02:13:40;;;;;;;0.40;0.40;;;20.80;81.10;;;21.15;66.37;94703.19;5012055;28;20313;-80
2022/08/28 02:16:09;;;;;;;0.32;0.32;;;20.80;81.00;;;21.23;66.28;94704.56;4995760;28;20279;-80
2022/08/28 02:18:37;;;;;;;0.40;0.40;;;20.80;81.10;;;21.26;66.01;94704.84;4980111;28;20671;-80
2022/08/28 02:21:06;;;;;;;0.30;0.30;;;20.90;81.10;;;21.28;66.01;94697.34;5027295;28;20253;-80
2022/08/28 02:23:35;;;;;;;0.40;0.40;;;20.90;81.10;;;21.27;66.05;94694.97;5028492;28;20206;-80
2022/08/28 02:26:02;;;;;;;0.40;0.40;;;20.90;80.90;;;21.33;65.90;94701.13;5011896;28;20327;-80
2022/08/28 02:28:29;;;;;;;0.30;0.30;;;20.90;80.90;;;21.32;66.09;94694.97;5028625;28;20199;-80
2022/08/28 02:30:56;;;;;;;0.50;0.50;;;21.00;81.00;;;21.34;65.81;94689.38;5008744;28;20205;-80
2022/08/28 02:33:24;;;;;;;0.40;0.40;;;21.00;80.90;;;21.35;65.97;94686.44;4999931;28;20204;-81
2022/08/28 02:35:52;;;;;;;0.40;0.40;;;21.00;80.80;;;21.36;66.04;94688.03;5012067;28;20697;-80
2022/08/28 02:38:19;;;;;;;0.40;0.40;;;21.00;80.60;;;21.34;65.98;94684.84;4997899;28;20200;-80
2022/08/28 02:40:46;;;;;;;0.40;0.40;;;21.00;80.60;;;21.33;65.60;94685.09;5031337;28;20803;-80
2022/08/28 02:43:13;;;;;;;0.40;0.40;;;21.00;80.60;;;21.30;65.96;94681.09;5022675;28;20226;-80
2022/08/28 02:45:40;;;;;;;0.40;0.40;;;21.00;80.50;;;21.30;66.07;94686.44;4995645;28;20185;-80
2022/08/28 02:48:08;;;;;;;0.40;0.40;;;21.00;80.50;;;21.27;66.04;94679.75;4994467;28;20201;-79
2022/08/28 02:50:44;;;;;;;0.40;0.40;;;21.00;80.40;;;21.24;66.20;94688.28;4996456;28;20255;-79
2022/08/28 02:53:12;;;;;;;0.40;0.40;;;21.00;80.40;;;21.21;65.68;94688.81;5024143;28;20201;-80
2022/08/28 02:55:39;;;;;;;0.40;0.40;;;21.00;80.30;;;21.15;66.77;94689.88;5011650;28;20299;-80
2022/08/28 02:58:08;;;;;;;0.40;0.40;;;21.00;80.50;;;21.14;66.53;94687.47;5011009;28;20585;-80
2022/08/28 03:00:35;;;;;;;0.40;0.40;;;20.90;80.30;;;21.11;66.14;94683.47;5015893;28;20640;-80
2022/08/28 03:03:03;;;;;;;0.50;0.50;;;20.90;80.50;;;21.07;66.51;94679.75;5018322;28;20233;-81
2022/08/28 03:05:30;;;;;;;0.40;0.40;;;20.90;80.50;;;21.06;66.48;94688.78;5012034;28;20291;-79
2022/08/28 03:07:57;;;;;;;0.40;0.40;;;20.80;80.40;;;21.01;66.45;94686.91;5036612;28;20213;-79
2022/08/28 03:10:25;;;;;;;0.40;0.40;;;20.80;80.50;;;21.00;66.56;94687.97;5011212;28;20705;-80
2022/08/28 03:12:52;;;;;;;0.50;0.50;;;20.80;80.50;;;21.02;66.47;94687.69;5006071;28;20606;-80
2022/08/28 03:15:19;;;;;;;0.40;0.40;;;20.80;80.70;;;21.04;66.07;94690.91;5027399;28;20208;-80
2022/08/28 03:17:47;;;;;;;0.40;0.40;;;20.80;80.80;;;20.99;66.17;94686.38;4987921;28;20303;-80
2022/08/28 03:20:16;;;;;;;0.40;0.40;;;20.80;80.80;;;21.02;66.22;94691.19;4997277;28;20203;-80
2022/08/28 03:25:29;;;;;;;0.43;0.43;;;20.80;80.80;;;21.03;66.44;94695.47;5023243;28;20567;-80
2022/08/28 03:27:56;;;;;;;0.40;0.40;;;20.80;80.80;;;21.03;66.45;94698.13;5028180;28;20742;-79
2022/08/28 03:30:23;;;;;;;0.40;0.40;;;20.80;80.80;;;21.03;66.15;94705.31;5012092;28;20192;-80
2022/08/28 03:32:51;;;;;;;0.40;0.40;;;20.80;80.80;;;21.02;66.45;94703.69;5005433;28;20220;-80
2022/08/28 03:35:19;;;;;;;0.40;0.40;;;20.80;80.90;;;21.01;66.32;94699.47;5004576;28;20839;-80
2022/08/28 03:37:46;;;;;;;0.40;0.40;;;20.80;80.90;;;21.00;66.59;94697.84;5012829;28;20310;-80
2022/08/28 03:40:14;;;;;;;0.40;0.40;;;20.80;80.90;;;21.00;66.67;94697.84;5007453;28;20193;-80
2022/08/28 03:42:42;;;;;;;0.45;0.45;;;20.80;81.00;;;20.99;66.80;94702.38;5013246;28;20717;-80
2022/08/28 03:45:19;;;;;;;0.40;0.40;;;20.80;81.00;;;20.98;66.45;94708.75;5018522;28;20200;-80
2022/08/28 03:47:46;;;;;;;0.40;0.40;;;20.80;81.00;;;20.97;66.70;94706.34;5018407;28;20243;-80
2022/08/28 03:50:15;;;;;;;0.40;0.40;;;20.70;80.90;;;20.94;66.69;94705.03;5023427;28;20205;-80
2022/08/28 03:52:42;;;;;;;0.40;0.40;;;20.80;81.00;;;20.96;67.00;94710.91;5026121;28;20216;-80
2022/08/28 03:55:11;;;;;;;0.40;0.40;;;20.80;81.00;;;20.93;67.01;94706.09;5019585;28;20611;-80
2022/08/28 03:57:39;;;;;;;0.40;0.40;;;20.80;81.20;;;20.96;67.07;94718.91;5012900;28;20236;-79
2022/08/28 04:00:10;;;;;;;0.40;0.40;;;20.80;81.10;;;20.97;66.81;94725.84;5007401;28;20682;-79
2022/08/28 04:02:42;;;;;;;0.40;0.40;;;20.80;81.20;;;21.00;66.89;94719.19;5013568;28;20230;-79
2022/08/28 04:05:10;;;;;;;0.35;0.35;;;20.80;81.20;;;21.02;66.68;94727.69;4980214;28;20686;-82
2022/08/28 04:07:39;;;;;;;0.40;0.40;;;20.80;81.20;;;21.02;66.77;94717.03;5012919;28;20295;-81
2022/08/28 04:10:07;;;;;;;0.30;0.30;;;20.80;81.20;;;21.06;67.02;94718.91;5019363;28;20210;-81
2022/08/28 04:12:35;;;;;;;0.40;0.40;;;20.80;81.20;;;21.09;66.68;94728.25;5032375;28;20214;-80
2022/08/28 04:15:04;;;;;;;0.40;0.40;;;20.80;81.20;;;21.11;66.59;94729.59;5016161;28;20212;-81
2022/08/28 04:17:33;;;;;;;0.40;0.40;;;20.90;81.30;;;21.15;66.72;94724.53;4997297;28;20320;-81
2022/08/28 04:20:01;;;;;;;0.50;0.50;;;20.90;81.30;;;21.14;66.76;94714.13;5016119;28;20212;-82
2022/08/28 04:22:29;;;;;;;0.40;0.40;;;20.90;81.30;;;21.22;66.75;94725.09;5015730;28;20216;-81
2022/08/28 04:24:56;;;;;;;0.40;0.40;;;20.90;81.40;;;21.25;66.85;94718.41;5019224;28;20200;-80
2022/08/28 04:27:23;;;;;;;0.40;0.40;;;20.90;81.40;;;21.28;66.57;94720.56;4998776;28;20206;-80
2022/08/28 04:29:50;;;;;;;0.43;0.43;;;21.00;81.40;;;21.27;66.43;94716.31;4998079;28;20237;-81
2022/08/28 04:32:17;;;;;;;0.40;0.40;;;21.00;81.40;;;21.32;66.31;94726.19;4998148;28;20468;-81
2022/08/28 04:34:45;;;;;;;0.40;0.40;;;21.00;81.30;;;21.36;66.29;94724.56;4998208;28;20196;-82
2022/08/28 04:37:12;;;;;;;0.40;0.40;;;21.00;81.30;;;21.37;66.47;94726.19;5015479;28;20216;-80
2022/08/28 04:39:39;;;;;;;0.47;0.47;;;21.00;81.30;;;21.38;66.62;94728.59;5006962;28;20209;-80
2022/08/28 04:42:06;;;;;;;0.43;0.43;;;21.10;80.80;;;21.38;66.74;94717.91;5014041;28;20224;-81
2022/08/28 04:44:33;;;;;;;0.50;0.50;;;21.10;81.40;;;21.39;66.24;94726.72;5016261;28;20210;-81
2022/08/28 04:47:02;;;;;;;0.40;0.40;;;21.10;81.40;;;21.43;66.78;94731.28;5034030;28;20227;-79
2022/08/28 04:49:32;;;;;;;0.43;0.43;;;21.10;81.40;;;21.43;66.33;94727.78;5024620;28;20714;-81
2022/08/28 04:51:59;;;;;;;0.50;0.50;;;21.10;81.30;;;21.46;66.66;94734.47;4998110;28;20220;-80
2022/08/28 04:54:26;;;;;;;0.50;0.50;;;21.20;81.40;;;21.48;66.37;94735.00;4997478;28;20306;-80
2022/08/28 04:56:54;;;;;;;0.40;0.40;;;21.20;81.40;;;21.51;66.78;94737.16;5033322;28;20226;-80
2022/08/28 04:59:21;;;;;;;0.40;0.40;;;21.20;81.50;;;21.49;66.67;94731.28;5013784;28;20207;-80
2022/08/28 05:01:48;;;;;;;0.40;0.40;;;21.20;81.30;;;21.49;66.56;94725.94;5012903;28;20228;-80
2022/08/28 05:04:16;;;;;;;0.40;0.40;;;21.20;81.30;;;21.50;66.48;94733.69;5029858;28;20198;-81
2022/08/28 05:06:45;;;;;;;0.40;0.40;;;21.20;81.40;;;21.55;66.54;94732.88;5011307;28;20233;-80
2022/08/28 05:09:16;;;;;;;0.40;0.40;;;21.30;81.40;;;21.59;66.84;94733.97;4981667;28;20303;-81
2022/08/28 05:11:45;;;;;;;0.50;0.50;;;21.30;81.50;;;21.58;66.39;94735.84;4981145;28;20219;-80
2022/08/28 05:14:13;;;;;;;0.40;0.40;;;21.30;81.40;;;21.64;66.61;94738.53;5016837;28;20219;-80
2022/08/28 05:16:47;;;;;;;0.40;0.40;;;21.30;81.40;;;21.65;66.70;94732.91;5014508;28;20327;-81
2022/08/28 05:19:17;;;;;;;0.40;0.40;;;21.40;81.50;;;21.70;66.31;94738.28;4981195;28;20203;-81
2022/08/28 05:21:45;;;;;;;0.50;0.50;;;21.40;81.40;;;21.73;66.41;94734.28;4997145;28;20307;-81
2022/08/28 05:24:12;;;;;;;0.35;0.35;;;21.40;81.50;;;21.78;66.38;94736.16;5010910;28;20224;-81
2022/08/28 05:26:40;;;;;;;0.40;0.40;;;21.50;81.50;;;21.81;66.51;94738.25;5018004;28;20245;-80
2022/08/28 05:29:08;;;;;;;0.40;0.40;;;21.50;81.50;;;21.87;66.52;94742.53;5018155;28;20200;-81
2022/08/28 05:31:40;;;;;;;0.40;0.40;;;21.50;81.40;;;21.90;66.63;94745.47;5049789;28;20220;-81
2022/08/28 05:34:09;;;;;;;0.40;0.40;;;21.50;81.30;;;21.93;66.35;94757.47;5036704;28;20223;-80
2022/08/28 05:36:38;;;;;;;0.40;0.40;;;21.60;81.30;;;21.95;66.08;94752.69;4998927;28;20232;-81
2022/08/28 05:39:09;;;;;;;0.40;0.40;;;21.60;81.20;;;21.93;66.10;94749.47;5004518;28;20213;-80
2022/08/28 05:41:40;;;;;;;0.50;0.50;;;21.70;81.10;;;22.00;66.18;94758.03;4996905;28;20259;-80
2022/08/28 05:44:11;;;;;;;0.40;0.40;;;21.70;81.00;;;22.01;66.14;94754.28;5002133;28;20235;-81
2022/08/28 05:46:42;;;;;;;0.30;0.30;;;21.70;81.00;;;22.00;66.45;94755.34;5016314;28;20241;-81
2022/08/28 05:49:11;;;;;;;0.40;0.40;;;21.70;80.90;;;22.07;65.64;94768.44;5012379;28;20197;-81
2022/08/28 05:51:41;;;;;;;0.40;0.40;;;21.80;80.90;;;22.10;65.87;94757.22;4980923;28;20271;-81
2022/08/28 05:54:10;;;;;;;0.47;0.47;;;21.80;80.90;;;22.15;65.98;94773.22;4979580;28;20635;-81
2022/08/28 05:56:40;;;;;;;0.40;0.40;;;21.80;80.90;;;22.18;65.76;94771.88;5009578;28;20235;-80
2022/08/28 05:59:10;;;;;;;0.40;0.40;;;21.90;80.90;;;22.21;66.03;94758.78;5002184;28;20689;-81
2022/08/28 06:01:42;;;;;;;0.40;0.40;;;21.90;80.90;;;22.28;66.05;94763.09;5004519;28;20231;-81
2022/08/28 06:04:14;;;;;;;0.30;0.30;;;22.00;81.00;;;22.29;65.95;94759.31;5008353;28;20273;-81
2022/08/28 06:06:41;;;;;;;0.30;0.30;;;22.00;80.90;;;22.37;66.12;94762.28;5032496;28;20219;-80
2022/08/28 06:09:16;;;;;;;0.50;0.50;;;22.10;81.00;;;22.44;65.90;94767.34;5031174;28;20697;-81
2022/08/28 06:11:43;;;;;;;0.40;0.40;;;22.10;80.80;;;22.49;65.92;94770.00;5018579;28;20220;-81
2022/08/28 06:14:16;;;;;;;0.50;0.50;;;22.20;80.80;;;22.51;65.78;94767.09;4980095;28;20273;-80
2022/08/28 06:16:52;;;;;;;0.40;0.40;;;22.20;80.60;;;22.57;65.62;94770.53;5006344;28;20315;-79
2022/08/28 06:19:23;;;;;;;0.40;0.40;;;22.30;80.50;;;22.58;65.44;94766.78;4999329;28;20204;-81
2022/08/28 06:21:56;;;;;;;0.40;0.40;;;22.30;80.20;;;22.60;65.44;94772.69;4995979;28;20232;-81
2022/08/28 06:24:24;;;;;;;0.40;0.40;;;22.40;80.20;;;22.58;65.50;94767.56;5011969;28;20299;-81
2022/08/28 06:26:51;;;;;;;0.40;0.40;;;22.40;80.10;;;22.60;65.25;94770.78;5022515;28;20240;-81
2022/08/28 06:29:24;;;;;;;0.30;0.30;;;22.40;80.00;;;22.61;65.16;94768.94;5018664;28;20252;-81
2022/08/28 06:31:59;;;;;;;0.40;0.40;;;22.50;80.00;;;22.66;65.40;94774.25;4985849;28;20241;-81
2022/08/28 06:34:27;;;;;;;0.40;0.40;;;22.50;80.80;;;22.70;65.45;94768.09;5011585;28;20303;-81
2022/08/28 06:36:55;;;;;;;0.38;0.38;;;22.50;80.10;;;22.72;65.52;94770.50;5012178;28;20212;-81
2022/08/28 06:39:23;;;;;;;0.40;0.40;;;22.50;80.00;;;22.76;65.27;94766.19;5002592;28;20208;-80
2022/08/28 06:41:50;;;;;;;0.40;0.40;;;22.50;79.90;;;22.74;65.21;94757.66;5014606;28;20242;-79
2022/08/28 06:44:19;;;;;;;0.30;0.30;;;22.60;79.80;;;22.82;65.06;94775.00;5015204;28;20216;-80
2022/08/28 06:46:52;;;;;;;0.40;0.40;;;22.70;79.80;;;22.84;65.25;94776.34;5014477;28;20229;-80
2022/08/28 06:49:20;;;;;;;0.40;0.40;;;22.70;79.70;;;22.85;65.00;94774.44;5011627;28;20295;-81
2022/08/28 06:51:48;;;;;;;0.40;0.40;;;22.70;79.50;;;22.83;65.31;94772.06;4995832;28;20213;-81
2022/08/28 06:54:16;;;;;;;0.40;0.40;;;22.70;79.50;;;22.88;65.07;94779.28;5012087;28;20564;-81
2022/08/28 06:56:52;;;;;;;0.40;0.40;;;22.70;79.50;;;22.88;64.86;94781.16;4996624;28;20489;-81
2022/08/28 06:59:20;;;;;;;0.40;0.40;;;22.70;79.40;;;22.90;64.63;94781.66;4995424;28;20208;-79
2022/08/28 07:01:47;;;;;;;0.40;0.40;;;22.70;79.20;;;22.89;64.48;94783.56;5015065;28;20228;-80
2022/08/28 07:04:14;;;;;;;0.40;0.40;;;22.70;79.10;;;22.85;64.59;94782.47;5031309;28;20224;-81
2022/08/28 07:06:48;;;;;;;0.70;0.70;;;22.70;79.10;;;22.88;64.83;94789.97;5020053;28;20263;-81
2022/08/28 07:09:20;;;;;;;0.40;0.40;;;22.70;79.10;;;22.86;64.82;94784.91;4997463;28;20288;-81
2022/08/28 07:11:48;;;;;;;0.32;0.32;;;22.70;79.10;;;22.88;64.32;94783.81;4999552;28;20242;-81
2022/08/28 07:14:15;;;;;;;0.40;0.40;;;22.70;79.10;;;22.83;64.25;94781.97;4995451;28;20287;-81
2022/08/28 07:16:43;;;;;;;0.40;0.40;;;22.70;79.10;;;22.88;64.53;94791.84;5004765;28;20579;-80
2022/08/28 07:19:12;;;;;;;0.40;0.40;;;22.70;79.10;;;22.87;64.00;94793.72;4995770;28;20709;-80
2022/08/28 07:21:43;;;;;;;0.40;0.40;;;22.70;79.00;;;22.86;64.29;94800.13;5007241;28;20219;-78
2022/08/28 07:24:13;;;;;;;0.60;0.60;;;22.70;79.00;;;22.84;64.36;94803.06;5019948;28;20252;-80
2022/08/28 07:26:42;;;;;;;0.40;0.40;;;22.70;78.90;;;22.81;63.92;94808.16;5005644;28;20240;-79
2022/08/28 07:29:10;;;;;;;0.40;0.40;;;22.70;78.90;;;22.79;64.33;94810.31;5014582;28;20204;-81
2022/08/28 07:31:45;;;;;;;0.40;0.40;;;22.70;78.70;;;22.75;64.08;94814.59;5031138;28;20278;-81
2022/08/28 07:34:13;;;;;;;0.40;0.40;;;22.60;78.60;;;22.73;63.97;94819.41;5022867;28;20273;-81
2022/08/28 07:36:41;;;;;;;0.38;0.38;;;22.60;78.70;;;22.71;64.24;94811.66;4999517;28;20216;-80
2022/08/28 07:39:10;;;;;;;0.30;0.30;;;22.50;78.90;;;22.70;64.55;94816.22;4995420;28;20218;-81
2022/08/28 07:41:41;;;;;;;0.40;0.40;;;22.50;78.80;;;22.70;64.35;94818.09;5013967;28;20255;-80
2022/08/28 07:47:02;;;;;;;0.50;0.50;;;22.50;78.90;;;22.67;64.07;94818.63;4997339;28;20316;-80
2022/08/28 07:49:32;;;;;;;0.40;0.40;;;22.50;78.80;;;22.67;64.16;94807.94;5000198;28;20205;-80
2022/08/28 07:52:00;;;;;;;0.30;0.30;;;22.50;78.80;;;22.69;64.60;94819.97;5002823;28;20697;-81
2022/08/28 07:54:27;;;;;;;0.38;0.38;;;22.50;78.90;;;22.70;64.36;94818.91;5015472;28;20279;-80
2022/08/28 07:56:54;;;;;;;0.40;0.40;;;22.50;79.00;;;22.73;64.49;94824.75;4998919;28;20225;-79
2022/08/28 07:59:22;;;;;;;0.40;0.40;;;22.50;79.10;;;22.73;64.34;94822.91;4983562;28;20718;-80
2022/08/28 08:01:50;;;;;;;0.30;0.30;;;22.50;79.00;;;22.77;64.34;94831.19;5002474;28;20227;-80
2022/08/28 08:04:20;;;;;;;0.30;0.30;;;22.50;79.00;;;22.78;64.09;94827.44;5003222;28;20236;-79
2022/08/28 08:06:48;;;;;;;0.40;0.40;;;22.60;79.20;;;22.81;64.38;94837.59;4971582;28;20240;-80
2022/08/28 08:09:21;;;;;;;0.30;0.30;;;22.60;79.20;;;22.82;64.10;94837.31;5001998;28;20769;-80
2022/08/28 08:11:48;;;;;;;0.30;0.30;;;22.50;79.10;;;22.85;64.10;94833.28;5004667;28;20219;-80
2022/08/28 08:14:16;;;;;;;0.40;0.40;;;22.60;79.10;;;22.85;64.39;94838.63;4982016;28;21362;-80
2022/08/28 08:16:45;;;;;;;0.40;0.40;;;22.60;79.20;;;22.89;64.47;94844.25;4990308;28;20255;-81
2022/08/28 08:19:14;;;;;;;0.40;0.40;;;22.70;79.20;;;22.91;64.37;94845.59;4993537;28;20649;-80
2022/08/28 08:21:47;;;;;;;0.40;0.40;;;22.70;79.10;;;22.93;64.36;94846.09;4992024;28;20239;-80
2022/08/28 08:24:19;;;;;;;0.40;0.40;;;22.70;78.90;;;22.93;64.49;94846.09;5006498;28;20232;-80
2022/08/28 08:26:48;;;;;;;0.40;0.40;;;22.80;79.00;;;23.00;64.37;94848.50;5014315;28;20209;-79
2022/08/28 08:29:31;;;;;;;0.40;0.40;;;22.80;79.00;;;23.06;64.26;94854.63;5002028;28;20570;-80
2022/08/28 08:32:04;;;;;;;0.40;0.40;;;22.80;79.10;;;23.10;64.40;94847.69;5012237;28;20283;-80
2022/08/28 08:34:37;;;;;;;0.40;0.40;;;22.90;79.10;;;23.10;64.26;94853.81;5010127;28;20666;-79
2022/08/28 08:37:04;;;;;;;0.30;0.30;;;22.90;79.00;;;23.16;64.32;94858.09;5015674;28;20224;-80
2022/08/28 08:39:34;;;;;;;0.40;0.40;;;23.00;78.90;;;23.21;64.21;94856.50;5021317;28;20391;-80
2022/08/28 08:42:07;;;;;;;0.30;0.30;;;23.00;78.80;;;23.23;64.60;94857.00;5011559;28;20216;-81
2022/08/28 08:44:45;;;;;;;0.40;0.40;;;23.00;78.90;;;23.29;64.17;94858.59;4981574;28;20308;-81
2022/08/28 08:47:22;;;;;;;0.50;0.50;;;23.10;78.80;;;23.32;63.84;94860.75;5000055;28;20216;-80
2022/08/28 08:49:57;;;;;;;0.30;0.30;;;23.20;78.70;;;23.32;63.86;94856.16;4980931;28;20295;-81
2022/08/28 08:52:55;;;;;;;0.60;0.60;;;23.20;78.30;;;23.32;63.50;94869.56;5002046;28;20271;-81
2022/08/28 08:55:30;;;;;;;0.40;0.40;;;23.20;78.30;;;23.33;63.82;94865.81;5014283;28;20205;-81
2022/08/28 08:58:24;;;;;;;0.30;0.30;;;23.20;78.40;;;23.36;63.84;94874.38;4986204;28;20224;-78
2022/08/28 09:01:19;;;;;;;0.30;0.30;;;23.30;78.60;;;23.36;63.82;94869.81;5031266;28;20912;-79
2022/08/28 09:03:58;;;;;;;0.50;0.50;;;23.30;78.20;;;23.40;63.81;94870.88;5015717;28;20232;-80
2022/08/28 09:06:49;;;;;;;0.60;0.60;;;23.30;78.40;;;23.39;63.56;94869.28;4998773;28;20263;-80
2022/08/28 09:09:50;;;;;;;0.30;0.30;;;23.30;78.30;;;23.40;63.78;94878.91;5014828;28;20232;-80
2022/08/28 09:12:25;;;;;;;0.40;0.40;;;23.30;78.20;;;23.39;63.61;94865.78;5030085;28;20316;-79
2022/08/28 09:14:56;;;;;;;0.40;0.40;;;23.30;78.20;;;23.38;63.45;94874.91;5028279;28;20203;-80
2022/08/28 09:17:36;;;;;;;0.30;0.30;;;23.30;78.20;;;23.37;63.58;94878.66;5003414;28;20293;-81
2022/08/28 09:20:10;;;;;;;0.40;0.40;;;23.30;78.10;;;23.33;63.31;94879.19;5033028;28;20288;-80
2022/08/28 09:22:44;;;;;;;0.40;0.40;;;23.30;78.20;;;23.32;63.49;94887.50;5009482;28;20251;-81
2022/08/28 09:25:49;;;;;;;0.40;0.40;;;23.20;78.00;;;23.29;63.67;94890.69;5017785;28;20231;-80
2022/08/28 09:28:37;;;;;;;0.60;0.60;;;23.20;78.00;;;23.28;63.49;94887.25;5000181;28;20204;-81
2022/08/28 09:31:30;;;;;;;0.30;0.30;;;23.20;78.20;;;23.28;63.85;94891.81;5014688;28;20305;-81
2022/08/28 09:34:18;;;;;;;0.40;0.40;;;23.20;78.20;;;23.26;63.64;94892.06;5017573;28;20240;-81
2022/08/28 09:36:45;;;;;;;0.70;0.70;;;23.20;78.20;;;23.28;63.74;94894.47;4998025;28;20216;-81
2022/08/28 09:39:32;;;;;;;0.40;0.40;;;23.20;78.30;;;23.30;63.82;94892.31;5014297;28;20287;-82
2022/08/28 09:45:17;;;;;;;0.30;0.30;;;23.20;78.40;;;23.37;63.68;94889.38;5017032;28;20216;-81
2022/08/28 09:47:59;;;;;;;0.52;0.52;;;23.30;78.50;;;23.45;63.77;94888.81;5029221;28;20220;-81
2022/08/28 09:50:43;;;;;;;0.40;0.40;;;23.30;78.40;;;23.57;64.22;94885.78;5020035;28;20207;-81
2022/08/28 09:53:12;;;;;;;0.50;0.50;;;23.40;78.80;;;23.72;64.29;94888.41;5028538;28;20203;-81
2022/08/28 09:56:02;;;;;;;0.40;0.40;;;23.50;79.10;;;23.87;64.38;94887.50;5011640;28;20185;-79
2022/08/28 09:58:37;;;;;;;0.40;0.40;;;23.60;79.00;;;24.05;63.95;94888.78;5018731;28;20586;-80
2022/08/28 10:01:37;;;;;;;0.40;0.40;;;23.80;79.00;;;24.27;63.98;94887.56;5012443;28;20221;-81
2022/08/28 10:04:14;;;;;;;0.30;0.30;;;23.90;79.00;;;24.49;63.74;94883.66;5016992;28;20245;-81
2022/08/28 10:07:08;;;;;;;0.32;0.32;;;24.10;79.30;;;24.66;63.49;94886.75;5031547;28;20288;-81
2022/08/28 10:10:27;;;;;;;0.30;0.30;;;24.40;78.60;;;24.74;62.69;94879.97;5031662;28;20189;-80
2022/08/28 10:13:07;;;;;;;0.40;0.40;;;24.50;78.30;;;24.91;62.39;94888.41;5044124;28;20224;-81
2022/08/28 10:15:57;;;;;;;0.30;0.30;;;24.70;77.50;;;25.06;62.63;94886.63;5029847;28;20197;-81
2022/08/28 10:19:09;;;;;;;0.40;0.40;;;24.90;77.70;;;25.19;62.26;94888.63;5022500;28;20221;-80
2022/08/28 10:21:50;;;;;;;0.30;0.30;;;25.00;77.40;;;25.33;62.24;94878.03;4995889;28;20290;-80
2022/08/28 10:24:45;;;;;;;0.30;0.30;;;25.20;77.50;;;25.53;62.09;94881.56;4994785;28;20242;-82
2022/08/28 10:27:32;;;;;;;0.30;0.30;;;25.40;77.20;;;25.77;62.04;94883.41;5009550;28;20234;-81
2022/08/28 10:30:12;;;;;;;0.30;0.30;;;25.60;77.00;;;25.85;59.28;94874.72;4995654;28;20675;-82
2022/08/28 10:33:36;;;;;;;0.30;0.30;;;25.70;75.60;;;25.97;59.98;94883.13;4982057;28;20255;-80
2022/08/28 10:36:19;;;;;;;0.38;0.38;;;25.90;75.50;;;26.12;59.95;94884.84;5005701;28;20228;-81
2022/08/28 10:39:18;;;;;;;0.30;0.30;;;26.10;75.70;;;26.26;59.82;94878.75;4997194;28;20204;-82
2022/08/28 10:41:57;;;;;;;0.20;0.20;;;26.20;75.30;;;26.33;59.69;94879.97;5025190;28;20223;-81
2022/08/28 10:44:57;;;;;;;0.40;0.40;;;26.30;73.20;;;26.35;59.27;94885.84;5031791;28;20223;-80
2022/08/28 10:47:28;;;;;;;0.30;0.30;;;26.40;74.80;;;26.31;59.34;94884.03;5011979;28;20243;-81
2022/08/28 10:50:02;;;;;;;0.30;0.30;;;26.40;74.40;;;26.28;58.75;94882.72;5009258;28;20210;-82
2022/08/28 10:52:40;;;;;;;0.30;0.30;;;26.30;73.80;;;26.26;59.11;94889.50;4985200;28;20604;-81
2022/08/28 10:55:18;;;;;;;0.20;0.20;;;26.30;73.50;;;26.24;58.87;94883.59;5014700;28;20258;-81